createdAt,value
2018-06-14T00:01:18.376Z,8.55
2018-06-14T00:03:46.933Z,8.43
2018-06-14T00:06:15.473Z,9.23
2018-06-14T00:08:44.053Z,9.60
2018-06-14T00:11:12.580Z,8.73
2018-06-14T00:13:41.153Z,8.50
2018-06-14T00:16:09.702Z,8.73
2018-06-14T00:18:38.266Z,8.37
2018-06-14T00:21:06.884Z,9.33
2018-06-14T00:23:35.466Z,8.75
2018-06-14T00:26:04.002Z,8.97
2018-06-14T00:28:32.569Z,8.77
2018-06-14T00:31:01.099Z,8.80
2018-06-14T00:33:29.677Z,9.30
2018-06-14T00:35:58.204Z,9.17
2018-06-14T00:38:26.753Z,8.27
2018-06-14T00:40:55.380Z,10.20
2018-06-14T00:43:23.954Z,9.80
2018-06-14T00:45:52.492Z,9.10
2018-06-14T00:48:21.049Z,8.90
2018-06-14T00:50:49.581Z,8.37
2018-06-14T00:53:18.153Z,8.70
2018-06-14T00:55:46.709Z,9.40
2018-06-14T00:58:15.261Z,8.33
2018-06-14T01:00:43.822Z,8.53
2018-06-14T01:03:12.400Z,9.00
2018-06-14T01:05:40.936Z,9.10
2018-06-14T01:08:09.522Z,9.50
2018-06-14T01:10:38.064Z,8.65
2018-06-14T01:13:06.653Z,9.07
2018-06-14T01:15:35.185Z,9.20
2018-06-14T01:18:04.517Z,9.77
2018-06-14T01:20:33.056Z,9.03
2018-06-14T01:23:01.596Z,8.03
2018-06-14T01:25:31.217Z,8.07
2018-06-14T01:27:59.757Z,8.70
2018-06-14T01:30:28.336Z,8.53
2018-06-14T01:32:56.873Z,8.17
2018-06-14T01:35:25.433Z,8.27
2018-06-14T01:38:05.129Z,8.20
2018-06-14T01:40:33.722Z,9.33
2018-06-14T01:43:02.253Z,8.23
2018-06-14T01:45:31.268Z,8.30
2018-06-14T01:47:59.841Z,8.67
2018-06-14T01:50:28.410Z,8.70
2018-06-14T01:52:56.965Z,9.97
2018-06-14T01:55:26.273Z,9.53
2018-06-14T01:57:54.825Z,9.43
2018-06-14T02:00:23.453Z,9.40
2018-06-14T02:02:51.993Z,10.87
2018-06-14T02:05:20.588Z,11.00
2018-06-14T02:07:49.140Z,12.20
2018-06-14T02:10:17.717Z,11.50
2018-06-14T02:12:46.261Z,10.77
2018-06-14T02:15:14.855Z,11.43
2018-06-14T02:17:43.439Z,10.80
2018-06-14T02:20:12.032Z,9.93
2018-06-14T02:22:40.637Z,10.73
2018-06-14T02:25:09.230Z,10.33
2018-06-14T02:27:37.781Z,9.30
2018-06-14T02:30:06.429Z,7.97
2018-06-14T02:32:34.977Z,8.73
2018-06-14T02:35:03.565Z,10.07
2018-06-14T02:37:36.308Z,8.73
2018-06-14T02:40:05.459Z,8.50
2018-06-14T02:42:34.069Z,7.97
2018-06-14T02:45:02.714Z,7.17
2018-06-14T02:47:31.444Z,8.15
2018-06-14T02:50:00.047Z,7.73
2018-06-14T02:52:28.601Z,7.57
2018-06-14T02:54:57.162Z,7.33
2018-06-14T02:57:25.689Z,7.30
2018-06-14T02:59:54.329Z,8.30
2018-06-14T03:02:22.881Z,7.47
2018-06-14T03:04:51.474Z,7.20
2018-06-14T03:07:25.205Z,6.80
2018-06-14T03:09:53.881Z,7.90
2018-06-14T03:12:22.456Z,7.40
2018-06-14T03:14:51.075Z,7.33
2018-06-14T03:17:20.828Z,7.60
2018-06-14T03:19:50.663Z,6.70
2018-06-14T03:22:19.464Z,7.80
2018-06-14T03:24:48.032Z,7.67
2018-06-14T03:27:16.624Z,6.80
2018-06-14T03:29:45.198Z,6.87
2018-06-14T03:32:13.881Z,7.60
2018-06-14T03:34:42.446Z,7.03
2018-06-14T03:37:11.285Z,7.23
2018-06-14T03:39:40.021Z,8.00
2018-06-14T03:42:15.757Z,6.45
2018-06-14T03:44:44.391Z,7.00
2018-06-14T03:47:12.982Z,7.83
2018-06-14T03:49:42.648Z,6.90
2018-06-14T03:52:12.389Z,7.13
2018-06-14T03:54:40.996Z,7.20
2018-06-14T03:57:09.877Z,7.50
2018-06-14T03:59:38.449Z,6.77
2018-06-14T04:02:07.348Z,7.20
2018-06-14T04:04:35.897Z,6.80
2018-06-14T04:07:04.540Z,7.97
2018-06-14T04:09:33.089Z,7.00
2018-06-14T04:12:01.731Z,6.10
2018-06-14T04:14:30.268Z,6.60
2018-06-14T04:16:58.837Z,6.17
2018-06-14T04:19:27.373Z,6.20
2018-06-14T04:21:55.938Z,6.30
2018-06-14T04:24:24.484Z,5.80
2018-06-14T04:26:53.068Z,5.97
2018-06-14T04:29:21.605Z,6.00
2018-06-14T04:31:50.180Z,6.03
2018-06-14T04:34:18.783Z,6.47
2018-06-14T04:36:47.590Z,6.70
2018-06-14T04:39:16.348Z,6.03
2018-06-14T04:41:45.798Z,6.00
2018-06-14T04:44:14.625Z,7.67
2018-06-14T04:46:43.441Z,7.55
2018-06-14T04:49:11.972Z,8.70
2018-06-14T04:51:43.237Z,8.20
2018-06-14T04:54:12.102Z,8.25
2018-06-14T04:56:41.449Z,7.37
2018-06-14T04:59:10.194Z,8.03
2018-06-14T05:01:38.812Z,8.40
2018-06-14T05:04:07.362Z,8.43
2018-06-14T05:06:35.993Z,9.50
2018-06-14T05:09:07.609Z,9.20
2018-06-14T05:11:36.802Z,8.33
2018-06-14T05:14:05.361Z,7.33
2018-06-14T05:16:33.942Z,8.07
2018-06-14T05:19:02.500Z,7.90
2018-06-14T05:21:32.025Z,8.75
2018-06-14T05:24:00.561Z,8.27
2018-06-14T05:26:29.132Z,8.30
2018-06-14T05:28:57.704Z,7.57
2018-06-14T05:31:26.268Z,8.93
2018-06-14T05:33:55.004Z,9.27
2018-06-14T05:36:23.541Z,8.57
2018-06-14T05:38:52.113Z,8.38
2018-06-14T05:41:20.657Z,9.47
2018-06-14T05:43:49.228Z,8.97
2018-06-14T05:46:17.777Z,9.27
2018-06-14T05:48:46.345Z,8.30
2018-06-14T05:51:14.906Z,7.63
2018-06-14T05:53:43.497Z,8.70
2018-06-14T05:56:12.074Z,8.10
2018-06-14T05:58:40.668Z,7.17
2018-06-14T06:01:09.288Z,8.10
2018-06-14T06:03:37.859Z,8.93
2018-06-14T06:06:06.412Z,9.18
2018-06-14T06:08:34.996Z,9.37
2018-06-14T06:11:03.557Z,7.90
2018-06-14T06:13:32.280Z,7.70
2018-06-14T06:16:00.814Z,7.57
2018-06-14T06:18:29.381Z,7.63
2018-06-14T06:20:57.933Z,7.90
2018-06-14T06:23:26.521Z,7.73
2018-06-14T06:25:55.084Z,6.93
2018-06-14T06:28:23.658Z,7.30
2018-06-14T06:30:53.132Z,7.80
2018-06-14T06:33:21.784Z,8.17
2018-06-14T06:35:50.306Z,8.50
2018-06-14T06:38:18.893Z,7.87
2018-06-14T06:40:47.437Z,7.70
2018-06-14T06:43:16.103Z,7.80
2018-06-14T06:45:51.361Z,10.10
2018-06-14T06:53:50.124Z,9.00
2018-06-14T06:56:18.680Z,9.50
2018-06-14T06:58:47.257Z,9.60
2018-06-14T07:01:15.872Z,14.98
2018-06-14T07:03:44.449Z,9.20
2018-06-14T07:06:13.108Z,10.80
2018-06-14T07:08:42.496Z,10.30
2018-06-14T07:11:12.163Z,9.00
2018-06-14T07:13:40.745Z,9.35
2018-06-14T07:16:09.309Z,10.00
2018-06-14T07:18:37.901Z,11.43
2018-06-14T07:21:06.894Z,9.97
2018-06-14T07:23:35.484Z,9.40
2018-06-14T07:26:04.045Z,9.03
2018-06-14T07:28:33.502Z,9.65
2018-06-14T07:31:02.041Z,8.97
2018-06-14T07:33:30.605Z,9.20
2018-06-14T07:35:59.160Z,8.67
2018-06-14T07:38:27.737Z,8.00
2018-06-14T07:40:56.550Z,8.43
2018-06-14T07:43:26.016Z,9.03
2018-06-14T07:45:54.897Z,9.10
2018-06-14T07:48:23.696Z,8.60
2018-06-14T07:50:52.497Z,8.70
2018-06-14T07:53:21.045Z,9.63
2018-06-14T07:55:50.140Z,8.93
2018-06-14T07:58:18.688Z,9.33
2018-06-14T08:00:49.317Z,9.00
2018-06-14T08:03:18.045Z,8.80
2018-06-14T08:05:46.861Z,8.83
2018-06-14T08:08:15.483Z,9.93
2018-06-14T08:10:44.124Z,8.60
2018-06-14T08:13:13.369Z,10.17
2018-06-14T08:15:41.978Z,10.83
2018-06-14T08:18:10.678Z,9.60
2018-06-14T08:23:20.992Z,10.20
2018-06-14T08:25:49.593Z,12.13
2018-06-14T08:28:18.216Z,9.97
2018-06-14T08:30:46.804Z,11.85
2018-06-14T08:33:15.349Z,11.97
2018-06-14T08:35:44.029Z,11.67
2018-06-14T08:38:12.633Z,13.20
2018-06-14T08:40:41.253Z,12.25
2018-06-14T08:43:09.821Z,9.23
2018-06-14T08:45:38.476Z,10.47
2018-06-14T08:48:07.033Z,9.77
2018-06-14T08:50:35.896Z,10.10
2018-06-14T08:53:04.526Z,10.07
2018-06-14T08:55:33.962Z,10.63
2018-06-14T08:58:02.512Z,10.40
2018-06-14T09:00:31.134Z,10.60
2018-06-14T09:02:59.680Z,9.33
2018-06-14T09:05:28.297Z,9.80
2018-06-14T09:07:56.831Z,8.77
2018-06-14T09:10:25.425Z,8.37
2018-06-14T09:12:54.084Z,8.00
2018-06-14T09:15:22.665Z,8.75
2018-06-14T09:17:51.201Z,8.13
2018-06-14T09:20:19.797Z,8.23
2018-06-14T09:22:48.352Z,8.97
2018-06-14T09:25:17.241Z,10.00
2018-06-14T09:27:45.788Z,10.13
2018-06-14T09:30:14.366Z,10.08
2018-06-14T09:32:42.913Z,10.00
2018-06-14T09:35:11.493Z,8.77
2018-06-14T09:37:40.050Z,9.37
2018-06-14T09:40:08.640Z,8.60
2018-06-14T09:42:37.210Z,9.47
2018-06-14T09:45:05.801Z,9.37
2018-06-14T09:47:34.428Z,9.10
2018-06-14T09:50:03.024Z,8.90
2018-06-14T09:52:31.563Z,9.00
2018-06-14T09:55:00.166Z,9.00
2018-06-14T09:57:28.709Z,9.83
2018-06-14T09:59:57.541Z,9.43
2018-06-14T10:02:26.113Z,8.63
2018-06-14T10:04:54.674Z,8.40
2018-06-14T10:07:23.252Z,8.03
2018-06-14T10:09:51.802Z,7.60
2018-06-14T10:12:20.392Z,8.40
2018-06-14T10:14:55.095Z,7.20
2018-06-14T10:17:23.917Z,6.72
2018-06-14T10:19:52.541Z,6.87
2018-06-14T10:22:21.987Z,6.23
2018-06-14T10:24:50.635Z,6.57
2018-06-14T10:27:19.952Z,7.60
2018-06-14T10:29:48.617Z,7.00
2018-06-14T10:32:17.282Z,7.27
2018-06-14T10:34:45.986Z,7.97
2018-06-14T10:37:14.601Z,8.70
2018-06-14T10:39:43.174Z,7.40
2018-06-14T10:42:11.744Z,7.33
2018-06-14T10:44:40.277Z,6.60
2018-06-14T10:47:08.949Z,6.20
2018-06-14T10:49:38.708Z,5.03
2018-06-14T10:52:07.276Z,4.40
2018-06-14T10:54:35.941Z,4.30
2018-06-14T10:57:05.220Z,4.83
2018-06-14T10:59:33.876Z,4.80
2018-06-14T11:02:02.461Z,5.13
2018-06-14T11:04:31.004Z,5.58
2018-06-14T11:06:59.598Z,4.43
2018-06-14T11:09:28.145Z,4.40
2018-06-14T11:11:56.718Z,4.53
2018-06-14T11:14:25.256Z,4.80
2018-06-14T11:16:53.829Z,5.10
2018-06-14T11:19:22.365Z,5.80
2018-06-14T11:21:50.940Z,6.87
2018-06-14T11:24:19.476Z,7.50
2018-06-14T11:26:48.088Z,6.83
2018-06-14T11:29:16.640Z,5.57
2018-06-14T11:31:45.244Z,4.43
2018-06-14T11:34:13.788Z,4.20
2018-06-14T11:36:42.413Z,4.30
2018-06-14T11:39:10.943Z,3.93
2018-06-14T11:41:39.508Z,4.00
2018-06-14T11:44:08.071Z,3.83
2018-06-14T11:46:36.640Z,3.70
2018-06-14T11:49:05.261Z,3.23
2018-06-14T11:51:33.881Z,3.00
2018-06-14T11:54:02.416Z,3.03
2018-06-14T11:56:30.956Z,3.20
2018-06-14T11:58:59.561Z,3.07
2018-06-14T12:01:28.097Z,2.90
2018-06-14T12:03:56.675Z,2.90
2018-06-14T12:06:25.205Z,2.72
2018-06-14T12:08:53.784Z,3.00
2018-06-14T12:11:22.327Z,2.70
2018-06-14T12:13:50.900Z,3.25
2018-06-14T12:16:20.057Z,2.60
2018-06-14T12:18:48.709Z,3.00
2018-06-14T12:21:18.383Z,3.00
2018-06-14T12:23:52.999Z,2.90
2018-06-14T12:26:21.628Z,2.73
2018-06-14T12:28:50.265Z,2.57
2018-06-14T12:31:18.814Z,2.55
2018-06-14T12:33:47.574Z,2.40
2018-06-14T12:36:18.614Z,2.70
2018-06-14T12:38:57.445Z,2.67
2018-06-14T12:41:26.120Z,2.80
2018-06-14T12:43:55.297Z,2.43
2018-06-14T12:46:23.838Z,2.47
2018-06-14T12:48:52.425Z,2.62
2018-06-14T12:51:24.411Z,2.60
2018-06-14T12:53:53.126Z,2.60
2018-06-14T12:56:21.698Z,2.80
2018-06-14T12:58:50.891Z,2.90
2018-06-14T13:01:19.468Z,2.63
2018-06-14T13:03:48.194Z,2.62
2018-06-14T13:06:16.774Z,2.70
2018-06-14T13:08:45.390Z,2.30
2018-06-14T13:11:14.908Z,2.20
2018-06-14T13:13:43.904Z,2.30
2018-06-14T13:16:12.468Z,2.83
2018-06-14T13:18:41.181Z,2.40
2018-06-14T13:21:09.982Z,2.77
2018-06-14T13:23:38.825Z,2.40
2018-06-14T13:26:07.460Z,2.40
2018-06-14T13:28:36.065Z,2.47
2018-06-14T13:31:04.750Z,2.10
2018-06-14T13:33:33.447Z,2.60
2018-06-14T13:36:02.099Z,2.43
2018-06-14T13:38:30.910Z,2.20
2018-06-14T13:40:59.498Z,2.10
2018-06-14T13:43:28.133Z,2.70
2018-06-14T13:45:56.777Z,2.40
2018-06-14T13:48:25.400Z,2.67
2018-06-14T13:50:53.984Z,2.50
2018-06-14T13:53:22.593Z,2.40
2018-06-14T13:55:51.193Z,2.70
2018-06-14T13:58:22.209Z,2.33
2018-06-14T14:00:51.301Z,2.08
2018-06-14T14:03:22.133Z,2.17
2018-06-14T14:05:51.025Z,2.50
2018-06-14T14:08:19.603Z,2.77
2018-06-14T14:10:48.185Z,2.87
2018-06-14T14:13:16.921Z,2.33
2018-06-14T14:15:47.393Z,2.55
2018-06-14T14:18:17.086Z,2.43
2018-06-14T14:20:51.364Z,2.83
2018-06-14T14:23:20.029Z,2.83
2018-06-14T14:25:54.685Z,2.80
2018-06-14T14:28:26.616Z,2.72
2018-06-14T14:30:55.936Z,2.70
2018-06-14T14:33:25.815Z,2.80
2018-06-14T14:35:55.900Z,2.55
2018-06-14T14:38:34.265Z,2.83
2018-06-14T14:41:07.089Z,3.00
2018-06-14T14:43:38.770Z,2.97
2018-06-14T14:46:10.625Z,3.00
2018-06-14T14:48:40.224Z,3.00
2018-06-14T14:51:08.793Z,2.83
2018-06-14T14:53:43.459Z,3.20
2018-06-14T14:56:16.756Z,2.87
2018-06-14T14:58:52.319Z,2.98
2018-06-14T15:01:29.332Z,3.10
2018-06-14T15:04:04.701Z,2.43
2018-06-14T15:06:38.186Z,2.57
2018-06-14T15:09:12.321Z,2.77
2018-06-14T15:11:46.859Z,2.70
2018-06-14T15:14:21.060Z,3.20
2018-06-14T15:16:54.186Z,2.45
2018-06-14T15:22:09.650Z,2.20
2018-06-14T15:24:39.372Z,2.70
2018-06-14T15:27:12.464Z,3.07
2018-06-14T15:29:43.172Z,2.73
2018-06-14T15:32:16.277Z,2.50
2018-06-14T15:34:47.421Z,2.83
2018-06-14T15:37:18.020Z,2.63
2018-06-14T15:39:47.581Z,2.50
2018-06-14T15:42:23.648Z,2.80
2018-06-14T15:44:53.584Z,2.60
2018-06-14T15:47:32.692Z,2.60
2018-06-14T15:50:02.747Z,2.90
2018-06-14T15:52:33.652Z,2.60
2018-06-14T15:55:13.965Z,3.07
2018-06-14T15:57:43.801Z,2.40
2018-06-14T16:00:14.310Z,2.40
2018-06-14T16:02:42.965Z,2.70
2018-06-14T16:05:15.697Z,2.50
2018-06-14T16:07:44.505Z,2.80
2018-06-14T16:10:13.044Z,2.63
2018-06-14T16:12:41.632Z,2.42
2018-06-14T16:15:10.189Z,2.47
2018-06-14T16:17:39.120Z,2.33
2018-06-14T16:20:07.893Z,2.02
2018-06-14T16:22:36.472Z,2.50
2018-06-14T16:25:05.033Z,2.40
2018-06-14T16:27:33.617Z,2.50
2018-06-14T16:30:02.174Z,2.63
2018-06-14T16:32:30.756Z,2.67
2018-06-14T16:34:59.309Z,2.20
2018-06-14T16:37:30.119Z,2.00
2018-06-14T16:39:58.718Z,2.43
2018-06-14T16:42:27.289Z,2.50
2018-06-14T16:44:55.856Z,2.08
2018-06-14T16:47:24.441Z,2.40
2018-06-14T16:49:52.984Z,2.30
2018-06-14T16:52:21.565Z,2.50
2018-06-14T16:54:50.106Z,2.12
2018-06-14T16:57:18.681Z,2.00
2018-06-14T16:59:47.269Z,2.20
2018-06-14T17:02:17.383Z,2.12
2018-06-14T17:04:46.096Z,2.40
2018-06-14T17:07:14.685Z,2.50
2018-06-14T17:09:47.619Z,2.70
2018-06-14T17:12:16.477Z,2.33
2018-06-14T17:14:46.983Z,2.43
2018-06-14T17:17:15.613Z,2.42
2018-06-14T17:19:44.420Z,2.37
2018-06-14T17:22:13.953Z,2.03
2018-06-14T17:24:42.867Z,2.40
2018-06-14T17:27:11.518Z,1.90
2018-06-14T17:29:40.061Z,2.03
2018-06-14T17:32:08.629Z,2.63
2018-06-14T17:34:37.339Z,2.10
2018-06-14T17:37:06.417Z,2.57
2018-06-14T17:39:37.499Z,2.10
2018-06-14T17:42:07.110Z,2.10
2018-06-14T17:44:37.012Z,2.40
2018-06-14T17:47:14.704Z,2.30
2018-06-14T17:49:45.062Z,2.47
2018-06-14T17:52:13.889Z,2.10
2018-06-14T17:54:43.207Z,2.30
2018-06-14T17:57:11.800Z,2.60
2018-06-14T17:59:40.393Z,2.50
2018-06-14T18:02:08.996Z,2.50
2018-06-14T18:04:37.525Z,2.43
2018-06-14T18:07:06.145Z,2.50
2018-06-14T18:09:34.694Z,2.37
2018-06-14T18:12:03.327Z,2.43
2018-06-14T18:14:32.004Z,2.57
2018-06-14T18:17:00.556Z,2.67
2018-06-14T18:19:29.549Z,2.70
2018-06-14T18:21:58.099Z,2.80
2018-06-14T18:24:26.673Z,3.25
2018-06-14T18:26:55.471Z,3.90
2018-06-14T18:29:24.963Z,4.03
2018-06-14T18:31:53.608Z,4.40
2018-06-14T18:34:22.427Z,4.15
2018-06-14T18:36:51.937Z,4.80
2018-06-14T18:39:20.763Z,4.70
2018-06-14T18:41:50.433Z,5.30
2018-06-14T18:44:19.848Z,4.72
2018-06-14T18:46:48.356Z,5.67
2018-06-14T18:49:17.141Z,5.50
2018-06-14T18:51:45.748Z,5.60
2018-06-14T18:54:14.861Z,6.07
2018-06-14T18:56:43.445Z,5.77
2018-06-14T18:59:12.060Z,6.07
2018-06-14T19:01:40.928Z,5.45
2018-06-14T19:04:09.546Z,5.90
2018-06-14T19:06:38.106Z,6.00
2018-06-14T19:09:08.902Z,6.53
2018-06-14T19:11:37.468Z,6.90
2018-06-14T19:14:06.440Z,6.63
2018-06-14T19:16:35.006Z,6.30
2018-06-14T19:19:03.588Z,6.50
2018-06-14T19:21:32.186Z,7.07
2018-06-14T19:24:01.476Z,7.00
2018-06-14T19:26:30.487Z,7.03
2018-06-14T19:29:01.620Z,7.90
2018-06-14T19:31:30.375Z,7.37
2018-06-14T19:34:06.509Z,7.72
2018-06-14T19:36:35.228Z,7.43
2018-06-14T19:39:11.648Z,7.47
2018-06-14T19:41:42.083Z,7.90
2018-06-14T19:44:11.054Z,7.60
2018-06-14T19:46:39.638Z,7.30
2018-06-14T19:49:08.281Z,7.37
2018-06-14T19:51:36.873Z,6.87
2018-06-14T19:54:05.564Z,7.90
2018-06-14T19:56:36.133Z,7.30
2018-06-14T19:59:04.845Z,7.57
2018-06-14T20:01:33.465Z,8.13
2018-06-14T20:04:04.567Z,8.58
2018-06-14T20:06:33.309Z,8.73
2018-06-14T20:09:01.853Z,9.67
2018-06-14T20:11:30.492Z,7.90
2018-06-14T20:13:59.047Z,8.20
2018-06-14T20:16:27.648Z,9.33
2018-06-14T20:18:56.207Z,8.30
2018-06-14T20:21:24.817Z,9.23
2018-06-14T20:23:53.357Z,9.40
2018-06-14T20:26:21.930Z,7.90
2018-06-14T20:28:50.492Z,8.80
2018-06-14T20:31:19.117Z,8.30
2018-06-14T20:33:48.650Z,7.47
2018-06-14T20:36:17.237Z,9.97
2018-06-14T20:38:45.785Z,9.73
2018-06-14T20:41:14.407Z,8.10
2018-06-14T20:43:42.997Z,9.17
2018-06-14T20:46:11.569Z,8.43
2018-06-14T20:48:40.125Z,9.20
2018-06-14T20:51:08.748Z,8.90
2018-06-14T20:53:37.329Z,8.60
2018-06-14T20:56:05.978Z,8.77
2018-06-14T20:58:34.534Z,9.93
2018-06-14T21:01:03.146Z,10.33
2018-06-14T21:03:33.493Z,11.10
2018-06-14T21:06:02.075Z,9.70
2018-06-14T21:08:30.641Z,9.70
2018-06-14T21:10:59.520Z,10.15
2018-06-14T21:13:28.079Z,11.63
2018-06-14T21:15:56.652Z,11.33
2018-06-14T21:18:25.204Z,11.83
2018-06-14T21:20:53.808Z,11.18
2018-06-14T21:23:22.385Z,12.13
2018-06-14T21:25:51.000Z,10.87
2018-06-14T21:28:19.552Z,11.57
2018-06-14T21:30:48.101Z,15.97
2018-06-14T21:33:16.693Z,12.17
2018-06-14T21:35:45.257Z,10.23
2018-06-14T21:38:13.853Z,10.10
2018-06-14T21:40:42.408Z,9.37
2018-06-14T21:43:11.450Z,10.15
2018-06-14T21:45:39.996Z,8.90
2018-06-14T21:48:08.593Z,9.77
2018-06-14T21:50:37.148Z,10.80
2018-06-14T21:53:05.752Z,9.80
2018-06-14T21:55:34.287Z,9.07
2018-06-14T21:58:02.866Z,8.43
2018-06-14T22:00:31.464Z,11.00
2018-06-14T22:03:05.242Z,10.93
2018-06-14T22:05:33.857Z,10.37
2018-06-14T22:08:02.722Z,10.60
2018-06-14T22:10:31.284Z,8.88
2018-06-14T22:12:59.852Z,9.70
2018-06-14T22:15:28.624Z,10.58
2018-06-14T22:17:57.652Z,10.50
2018-06-14T22:20:26.200Z,9.15
2018-06-14T22:22:54.787Z,9.53
2018-06-14T22:25:23.377Z,9.43
2018-06-14T22:27:52.001Z,9.20
2018-06-14T22:30:20.836Z,9.33
2018-06-14T22:32:59.397Z,9.70
2018-06-14T22:35:29.284Z,9.03
2018-06-14T22:37:58.097Z,9.10
2018-06-14T22:40:26.671Z,12.40
2018-06-14T22:42:55.248Z,10.13
2018-06-14T22:45:23.801Z,13.45
2018-06-14T22:47:52.396Z,10.93
2018-06-14T22:50:32.109Z,10.70
2018-06-14T22:53:03.644Z,10.77
2018-06-14T22:55:32.216Z,10.10
2018-06-14T22:58:00.817Z,10.63
2018-06-14T23:01:55.628Z,11.03
2018-06-14T23:04:27.302Z,13.73
2018-06-14T23:06:56.022Z,11.27
2018-06-14T23:10:42.208Z,11.70
2018-06-14T23:13:18.860Z,12.50
2018-06-14T23:15:47.474Z,12.57
2018-06-14T23:18:16.017Z,11.57
2018-06-14T23:20:44.590Z,13.13
2018-06-14T23:23:13.270Z,10.93
2018-06-14T23:25:41.845Z,11.53
2018-06-14T23:28:10.402Z,11.10
2018-06-14T23:30:38.981Z,10.13
2018-06-14T23:33:07.571Z,12.07
2018-06-14T23:35:36.176Z,11.37
2018-06-14T23:38:04.737Z,12.37
2018-06-14T23:40:33.327Z,12.47
2018-06-14T23:43:01.942Z,12.53
2018-06-14T23:45:30.481Z,12.80
2018-06-14T23:47:58.981Z,12.90
2018-06-14T23:50:27.514Z,12.03
2018-06-14T23:52:56.021Z,11.10
2018-06-14T23:55:24.556Z,12.60
2018-06-14T23:57:53.332Z,10.50
